コペンハーゲン の空港の天気 - METARとTAF

コペンハーゲン国際空港 ( EKCH / CPH ) - デンマーク コペンハーゲン
飛行場実況気象(Metar)
観測時間03/27 15:50 CEST (03/27 13:50 UTC)
風向・風速西 4m/s
視程10km以上
天気現象
少しの雲 雲底高度 460m
全天の4割程度の雲 雲底高度 7920m
気温12℃
湿度71%
気圧1022hPa
METAREKCH 271350Z 26008KT 240V300 9999 FEW015 SCT260 12/07 Q1022 NOSIG
過去の天気等 Google飛行場航空写真 Wunderground天気予報

過去48時間のMETAR

飛行場予報(TAF)
発表時間: 3/27 13:17 CEST (3/27 11:17 UTC)
予報対象時間: 27日14時 CEST ~ 28日14時 CEST
風向・風速西北西 4m/s
視程8,000m
全天の8割程度の雲 雲底高度 150m
27日14時 CEST ~ 27日20時 CEST に一時的に
全天の4割程度の雲 雲底高度 150m
27日23時 CEST ~ 28日1時 CEST に徐々に
視程2,000m
天気現象もや
全天の8割程度の雲 雲底高度 90m
28日12時 CEST ~ 28日14時 CEST に徐々に
視程4,000m
天気現象もや
全天の8割程度の雲 雲底高度 240m
TAF EKCH 271117Z 2712/2812 29008KT 8000 BKN005
TEMPO 2712/2718 SCT005
BECMG 2721/2723 2000 BR BKN003
BECMG 2810/2812 4000 BR BKN008